createdAt,value
2019-05-26T00:00:34.812Z,12.17
2019-05-26T00:05:40.761Z,12.14
2019-05-26T00:10:46.526Z,12.21
2019-05-26T00:15:52.604Z,12.17
2019-05-26T00:20:58.779Z,12.25
2019-05-26T00:26:04.749Z,12.27
2019-05-26T00:31:11.842Z,12.22
2019-05-26T00:36:17.916Z,12.21
2019-05-26T00:41:23.887Z,12.33
2019-05-26T00:46:29.755Z,12.38
2019-05-26T00:51:35.629Z,12.13
2019-05-26T00:56:41.496Z,12.14
2019-05-26T01:01:47.465Z,12.09
2019-05-26T01:06:56.711Z,12.10
2019-05-26T01:12:01.737Z,12.13
2019-05-26T01:17:07.562Z,12.10
2019-05-26T01:22:13.599Z,12.00
2019-05-26T01:27:19.649Z,12.14
2019-05-26T01:32:25.562Z,12.16
2019-05-26T01:37:31.748Z,12.13
2019-05-26T01:42:37.789Z,12.04
2019-05-26T01:47:43.724Z,12.17
2019-05-26T01:52:49.832Z,12.33
2019-05-26T01:57:55.704Z,12.31
2019-05-26T02:03:01.672Z,12.26
2019-05-26T02:08:12.010Z,12.20
2019-05-26T02:13:18.124Z,12.14
2019-05-26T02:18:24.296Z,12.25
2019-05-26T02:23:30.170Z,12.15
2019-05-26T02:28:36.032Z,12.08
2019-05-26T02:33:41.802Z,12.16
2019-05-26T02:39:00.944Z,12.07
2019-05-26T02:43:55.304Z,12.09
2019-05-26T02:49:01.467Z,11.97
2019-05-26T02:54:07.553Z,11.94
2019-05-26T02:59:13.524Z,11.98
2019-05-26T03:04:19.571Z,11.94
2019-05-26T03:09:26.976Z,11.95
2019-05-26T03:14:35.710Z,12.00
2019-05-26T03:19:43.093Z,11.89
2019-05-26T03:24:54.494Z,11.80
2019-05-26T03:30:00.489Z,11.87
2019-05-26T03:35:10.961Z,12.01
2019-05-26T03:40:17.139Z,12.04
2019-05-26T03:45:42.254Z,12.03
2019-05-26T03:50:48.126Z,12.09
2019-05-26T03:55:53.995Z,12.15
2019-05-26T04:00:59.864Z,12.21
2019-05-26T04:06:06.255Z,12.33
2019-05-26T04:11:12.503Z,12.45
2019-05-26T04:16:18.391Z,12.55
2019-05-26T04:21:24.273Z,12.61
2019-05-26T04:26:30.226Z,12.68
2019-05-26T04:31:36.502Z,12.67
2019-05-26T04:36:42.590Z,12.78
2019-05-26T04:41:48.778Z,12.71
2019-05-26T04:46:54.840Z,12.95
2019-05-26T04:52:01.112Z,13.06
2019-05-26T04:57:07.187Z,13.05
2019-05-26T05:02:13.253Z,13.21
2019-05-26T05:07:19.390Z,13.31
2019-05-26T05:12:25.512Z,13.35
2019-05-26T05:17:31.368Z,13.65
2019-05-26T05:22:37.443Z,13.92
2019-05-26T05:27:43.439Z,13.93
2019-05-26T05:32:49.692Z,13.95
2019-05-26T05:37:55.673Z,14.09
2019-05-26T05:43:02.184Z,14.39
2019-05-26T05:48:08.551Z,14.55
2019-05-26T05:53:14.561Z,15.27
2019-05-26T05:58:22.007Z,15.94
2019-05-26T06:03:27.974Z,16.20
2019-05-26T06:08:33.945Z,16.13
2019-05-26T06:13:40.849Z,16.19
2019-05-26T06:18:47.330Z,15.78
2019-05-26T06:23:53.293Z,16.31
2019-05-26T06:28:59.272Z,15.87
2019-05-26T06:34:05.599Z,16.33
2019-05-26T06:39:11.512Z,15.79
2019-05-26T06:44:18.032Z,15.44
2019-05-26T06:49:24.443Z,15.87
2019-05-26T06:54:30.652Z,16.66
2019-05-26T06:59:36.625Z,17.52
2019-05-26T07:04:43.110Z,17.29
2019-05-26T07:09:49.443Z,17.23
2019-05-26T07:14:56.490Z,16.37
2019-05-26T07:20:02.791Z,16.56
2019-05-26T07:25:09.556Z,15.94
2019-05-26T07:30:16.809Z,15.25
2019-05-26T07:35:22.968Z,15.45
2019-05-26T07:40:29.412Z,16.11
2019-05-26T07:45:35.313Z,16.29
2019-05-26T07:50:41.258Z,15.57
2019-05-26T07:55:47.422Z,15.32
2019-05-26T08:00:53.501Z,15.43
2019-05-26T08:05:59.471Z,15.82
2019-05-26T08:11:05.968Z,16.12
2019-05-26T08:16:11.982Z,16.10
2019-05-26T08:21:18.101Z,15.81
2019-05-26T08:26:24.308Z,16.10
2019-05-26T08:31:30.517Z,16.28
2019-05-26T08:36:36.927Z,15.86
2019-05-26T08:41:43.005Z,15.73
2019-05-26T08:46:49.111Z,16.09
2019-05-26T08:51:55.463Z,16.24
2019-05-26T08:57:01.531Z,16.46
2019-05-26T09:02:07.603Z,16.70
2019-05-26T09:07:13.692Z,16.78
2019-05-26T09:12:19.970Z,16.76
2019-05-26T09:17:26.053Z,16.56
2019-05-26T09:22:32.098Z,16.24
2019-05-26T09:27:38.351Z,16.39
2019-05-26T09:32:44.382Z,16.69
2019-05-26T09:37:51.349Z,16.34
2019-05-26T09:42:57.416Z,16.28
2019-05-26T09:48:03.512Z,17.30
2019-05-26T09:53:09.466Z,17.19
2019-05-26T09:58:15.437Z,16.81
2019-05-26T10:03:21.411Z,16.98
2019-05-26T10:08:27.480Z,17.02
2019-05-26T10:13:33.652Z,17.29
2019-05-26T10:18:40.509Z,17.53
2019-05-26T10:23:46.742Z,17.33
2019-05-26T10:28:52.791Z,16.91
2019-05-26T10:33:58.822Z,17.48
2019-05-26T10:39:06.892Z,17.18
2019-05-26T10:44:12.957Z,17.18
2019-05-26T10:49:19.195Z,17.13
2019-05-26T10:54:25.424Z,17.18
2019-05-26T10:59:31.591Z,17.24
2019-05-26T11:04:37.659Z,17.70
2019-05-26T11:09:43.845Z,17.57
2019-05-26T11:14:49.852Z,17.71
2019-05-26T11:19:55.887Z,17.55
2019-05-26T11:25:02.337Z,17.50
2019-05-26T11:30:11.743Z,17.62
2019-05-26T11:35:19.328Z,17.81
2019-05-26T11:40:25.806Z,17.54
2019-05-26T11:45:32.417Z,18.19
2019-05-26T11:50:38.486Z,17.91
2019-05-26T11:55:45.255Z,17.75
2019-05-26T12:00:51.128Z,17.80
2019-05-26T12:05:57.091Z,18.19
2019-05-26T12:11:03.402Z,18.41
2019-05-26T12:16:09.465Z,17.83
2019-05-26T12:21:15.430Z,17.75
2019-05-26T12:26:21.595Z,17.64
2019-05-26T12:31:27.567Z,17.93
2019-05-26T12:36:38.907Z,18.32
2019-05-26T12:41:42.581Z,18.20
2019-05-26T12:46:48.649Z,18.35
2019-05-26T12:51:55.068Z,18.54
2019-05-26T12:57:01.311Z,18.31
2019-05-26T13:02:07.608Z,18.31
2019-05-26T13:07:13.460Z,18.42
2019-05-26T13:12:19.686Z,18.52
2019-05-26T13:17:25.657Z,18.36
2019-05-26T13:22:31.690Z,18.22
2019-05-26T13:27:37.546Z,18.24
2019-05-26T13:32:43.513Z,17.96
2019-05-26T13:37:49.623Z,18.03
2019-05-26T13:42:55.686Z,18.17
2019-05-26T13:48:02.040Z,18.77
2019-05-26T13:53:08.134Z,19.04
2019-05-26T13:58:14.282Z,18.74
2019-05-26T14:03:20.259Z,18.50
2019-05-26T14:08:26.255Z,18.68
2019-05-26T14:13:32.226Z,18.78
2019-05-26T14:18:38.657Z,18.76
2019-05-26T14:23:44.755Z,18.68
2019-05-26T14:28:50.826Z,18.74
2019-05-26T14:33:56.701Z,18.68
2019-05-26T14:39:02.693Z,18.58
2019-05-26T14:44:08.941Z,18.69
2019-05-26T14:49:15.025Z,18.59
2019-05-26T14:54:21.089Z,18.57
2019-05-26T14:59:27.298Z,18.60
2019-05-26T15:04:33.339Z,18.54
2019-05-26T15:09:39.310Z,18.67
2019-05-26T15:14:45.382Z,18.76
2019-05-26T15:19:51.466Z,18.64
2019-05-26T15:24:57.428Z,18.62
2019-05-26T15:30:04.734Z,18.67
2019-05-26T15:35:12.113Z,18.81
2019-05-26T15:40:19.249Z,19.00
2019-05-26T15:45:25.347Z,19.04
2019-05-26T15:50:31.589Z,19.01
2019-05-26T15:55:39.866Z,18.74
2019-05-26T16:00:53.417Z,18.73
2019-05-26T16:06:03.419Z,18.93
2019-05-26T16:11:09.864Z,19.20
2019-05-26T16:16:16.192Z,19.35
2019-05-26T16:21:27.968Z,19.17
2019-05-26T16:26:31.093Z,18.83
2019-05-26T16:31:37.065Z,18.79
2019-05-26T16:36:43.459Z,18.83
2019-05-26T16:41:49.646Z,18.75
2019-05-26T16:46:57.070Z,18.78
2019-05-26T16:52:03.304Z,18.81
2019-05-26T16:57:09.689Z,18.57
2019-05-26T17:02:17.631Z,18.61
2019-05-26T17:07:28.274Z,18.47
2019-05-26T17:12:34.365Z,18.47
2019-05-26T17:17:40.338Z,18.49
2019-05-26T17:22:46.867Z,18.42
2019-05-26T17:27:52.749Z,18.34
2019-05-26T17:32:58.855Z,18.40
2019-05-26T17:38:05.257Z,18.33
2019-05-26T17:43:11.310Z,18.33
2019-05-26T17:48:17.345Z,18.28
2019-05-26T17:53:23.251Z,18.20
2019-05-26T17:58:29.194Z,18.13
2019-05-26T18:03:35.707Z,18.18
2019-05-26T18:08:41.757Z,18.22
2019-05-26T18:13:47.873Z,18.17
2019-05-26T18:18:53.928Z,18.00
2019-05-26T18:24:00.042Z,17.93
2019-05-26T18:29:06.373Z,17.86
2019-05-26T18:34:12.453Z,17.67
2019-05-26T18:39:18.423Z,17.65
2019-05-26T18:44:24.408Z,17.58
2019-05-26T18:49:30.900Z,17.63
2019-05-26T18:54:36.961Z,17.62
2019-05-26T18:59:43.022Z,17.53
2019-05-26T19:04:48.998Z,17.46
2019-05-26T19:09:54.881Z,17.49
2019-05-26T19:15:00.728Z,17.37
2019-05-26T19:20:16.021Z,17.41
2019-05-26T19:25:17.895Z,17.34
2019-05-26T19:30:23.961Z,17.27
2019-05-26T19:35:29.944Z,17.26
2019-05-26T19:40:36.013Z,17.20
2019-05-26T19:45:41.979Z,17.12
2019-05-26T19:50:47.891Z,16.94
2019-05-26T19:55:53.924Z,16.91
2019-05-26T20:01:00.139Z,16.73
2019-05-26T20:06:06.656Z,16.52
2019-05-26T20:11:12.760Z,16.48
2019-05-26T20:16:18.824Z,16.43
2019-05-26T20:21:24.801Z,16.31
2019-05-26T20:26:30.772Z,16.37
2019-05-26T20:31:36.738Z,16.27
2019-05-26T20:36:42.718Z,16.27
2019-05-26T20:41:48.683Z,16.20
2019-05-26T20:46:54.657Z,16.06
2019-05-26T20:52:00.619Z,16.09
2019-05-26T20:57:06.596Z,16.12
2019-05-26T21:02:12.563Z,16.07
2019-05-26T21:07:18.982Z,16.12
2019-05-26T21:12:24.811Z,16.24
2019-05-26T21:17:30.902Z,16.27
2019-05-26T21:22:36.865Z,16.40
2019-05-26T21:27:42.723Z,16.38
2019-05-26T21:32:48.700Z,16.35
2019-05-26T21:37:54.871Z,16.36
2019-05-26T21:43:00.637Z,16.30
2019-05-26T21:48:06.811Z,16.24
2019-05-26T21:53:12.697Z,16.16
2019-05-26T21:58:18.555Z,15.98
2019-05-26T22:03:24.519Z,16.05
2019-05-26T22:08:30.321Z,16.08
2019-05-26T22:13:36.668Z,16.04
2019-05-26T22:18:42.537Z,16.06
2019-05-26T22:23:48.405Z,16.00
2019-05-26T22:28:54.380Z,15.98
2019-05-26T22:34:00.175Z,15.89
2019-05-26T22:39:07.780Z,15.76
2019-05-26T22:44:13.722Z,15.91
2019-05-26T22:49:19.594Z,16.00
2019-05-26T22:54:25.455Z,16.00
2019-05-26T22:59:31.326Z,16.03
2019-05-26T23:04:37.230Z,16.08
2019-05-26T23:09:42.962Z,16.18
2019-05-26T23:14:48.829Z,16.27
2019-05-26T23:19:54.701Z,16.43
2019-05-26T23:25:00.566Z,16.37
2019-05-26T23:30:08.690Z,16.32
2019-05-26T23:35:15.274Z,16.26
2019-05-26T23:40:21.147Z,16.32
2019-05-26T23:45:27.117Z,16.22
2019-05-26T23:50:32.986Z,16.10
2019-05-26T23:55:38.897Z,16.21
